sensor_id;sensor_type;location;lat;lon;timestamp;pressure;altitude;pressure_sealevel;temperature;humidity
62952;BME280;52163;52.212;-1.002;2023-01-16T00:00:28;97879.94;;;2.39;97.93
62952;BME280;52163;52.212;-1.002;2023-01-16T00:02:54;97874.89;;;2.34;97.71
62952;BME280;52163;52.212;-1.002;2023-01-16T00:05:19;97870.41;;;2.31;97.71
62952;BME280;52163;52.212;-1.002;2023-01-16T00:07:44;97863.13;;;2.25;97.89
62952;BME280;52163;52.212;-1.002;2023-01-16T00:10:10;97860.45;;;2.23;98.26
62952;BME280;52163;52.212;-1.002;2023-01-16T00:12:36;97857.16;;;2.23;98.57
62952;BME280;52163;52.212;-1.002;2023-01-16T00:15:02;97851.17;;;2.24;98.92
62952;BME280;52163;52.212;-1.002;2023-01-16T00:17:27;97852.23;;;2.27;99.02
62952;BME280;52163;52.212;-1.002;2023-01-16T00:19:52;97848.66;;;2.28;98.82
62952;BME280;52163;52.212;-1.002;2023-01-16T00:22:18;97841.95;;;2.26;98.52
62952;BME280;52163;52.212;-1.002;2023-01-16T00:24:43;97836.46;;;2.28;98.55
62952;BME280;52163;52.212;-1.002;2023-01-16T00:27:09;97827.86;;;2.26;98.04
62952;BME280;52163;52.212;-1.002;2023-01-16T00:29:34;97823.48;;;2.24;98.08
62952;BME280;52163;52.212;-1.002;2023-01-16T00:32:00;97821.96;;;2.21;97.97
62952;BME280;52163;52.212;-1.002;2023-01-16T00:34:25;97818.16;;;2.15;98.08
62952;BME280;52163;52.212;-1.002;2023-01-16T00:36:50;97810.58;;;2.11;98.50
62952;BME280;52163;52.212;-1.002;2023-01-16T00:39:16;97801.30;;;2.12;99.28
62952;BME280;52163;52.212;-1.002;2023-01-16T00:41:41;97795.59;;;2.14;99.36
62952;BME280;52163;52.212;-1.002;2023-01-16T00:44:06;97792.49;;;2.13;98.97
62952;BME280;52163;52.212;-1.002;2023-01-16T00:46:32;97782.38;;;2.14;99.02
62952;BME280;52163;52.212;-1.002;2023-01-16T00:48:57;97778.55;;;2.16;99.11
62952;BME280;52163;52.212;-1.002;2023-01-16T00:51:23;97775.67;;;2.18;98.90
62952;BME280;52163;52.212;-1.002;2023-01-16T00:53:48;97763.06;;;2.13;97.90
62952;BME280;52163;52.212;-1.002;2023-01-16T00:56:13;97758.42;;;2.10;97.76
62952;BME280;52163;52.212;-1.002;2023-01-16T00:58:39;97758.29;;;2.10;98.45
62952;BME280;52163;52.212;-1.002;2023-01-16T01:01:05;97757.44;;;2.09;98.39
62952;BME280;52163;52.212;-1.002;2023-01-16T01:03:31;97751.23;;;2.06;97.97
62952;BME280;52163;52.212;-1.002;2023-01-16T01:05:57;97747.09;;;2.02;97.92
62952;BME280;52163;52.212;-1.002;2023-01-16T01:08:22;97740.45;;;2.00;98.38
62952;BME280;52163;52.212;-1.002;2023-01-16T01:10:48;97736.19;;;2.01;98.69
62952;BME280;52163;52.212;-1.002;2023-01-16T01:13:14;97733.73;;;2.02;98.47
62952;BME280;52163;52.212;-1.002;2023-01-16T01:15:39;97726.96;;;2.02;98.30
62952;BME280;52163;52.212;-1.002;2023-01-16T01:18:05;97718.34;;;2.03;98.52
62952;BME280;52163;52.212;-1.002;2023-01-16T01:20:31;97715.40;;;2.03;98.53
62952;BME280;52163;52.212;-1.002;2023-01-16T01:22:56;97709.94;;;2.01;98.42
62952;BME280;52163;52.212;-1.002;2023-01-16T01:25:22;97706.95;;;2.01;98.64
62952;BME280;52163;52.212;-1.002;2023-01-16T01:27:48;97702.36;;;2.00;98.22
62952;BME280;52163;52.212;-1.002;2023-01-16T01:30:13;97695.80;;;1.91;97.64
62952;BME280;52163;52.212;-1.002;2023-01-16T01:32:39;97693.42;;;1.85;97.60
62952;BME280;52163;52.212;-1.002;2023-01-16T01:35:05;97686.95;;;1.83;98.24
62952;BME280;52163;52.212;-1.002;2023-01-16T01:37:31;97682.11;;;1.80;98.06
62952;BME280;52163;52.212;-1.002;2023-01-16T01:39:57;97672.60;;;1.75;97.64
62952;BME280;52163;52.212;-1.002;2023-01-16T01:42:22;97665.63;;;1.69;97.64
62952;BME280;52163;52.212;-1.002;2023-01-16T01:47:41;97662.07;;;1.68;98.90
62952;BME280;52163;52.212;-1.002;2023-01-16T01:53:03;97651.14;;;1.78;99.87
62952;BME280;52163;52.212;-1.002;2023-01-16T01:55:31;97640.06;;;1.79;99.77
62952;BME280;52163;52.212;-1.002;2023-01-16T01:57:59;97634.45;;;1.80;99.60
62952;BME280;52163;52.212;-1.002;2023-01-16T02:00:26;97629.34;;;1.81;99.57
62952;BME280;52163;52.212;-1.002;2023-01-16T02:03:07;97626.31;;;1.82;99.35
62952;BME280;52163;52.212;-1.002;2023-01-16T02:05:48;97623.14;;;1.82;99.31
62952;BME280;52163;52.212;-1.002;2023-01-16T02:08:18;97614.27;;;1.85;99.48
62952;BME280;52163;52.212;-1.002;2023-01-16T02:10:59;97605.66;;;1.88;99.90
62952;BME280;52163;52.212;-1.002;2023-01-16T02:13:27;97595.48;;;1.89;99.68
62952;BME280;52163;52.212;-1.002;2023-01-16T02:15:55;97592.33;;;1.87;99.56
62952;BME280;52163;52.212;-1.002;2023-01-16T02:18:38;97592.87;;;1.85;99.35
62952;BME280;52163;52.212;-1.002;2023-01-16T02:30:03;97584.40;;;1.68;99.47
62952;BME280;52163;52.212;-1.002;2023-01-16T02:32:43;97578.39;;;1.67;99.67
62952;BME280;52163;52.212;-1.002;2023-01-16T02:35:32;97576.05;;;1.68;99.81
62952;BME280;52163;52.212;-1.002;2023-01-16T02:38:49;97569.85;;;1.70;99.97
62952;BME280;52163;52.212;-1.002;2023-01-16T02:52:22;97543.88;;;1.73;100.00
62952;BME280;52163;52.212;-1.002;2023-01-16T02:55:08;97536.00;;;1.77;100.00
62952;BME280;52163;52.212;-1.002;2023-01-16T02:57:43;97526.11;;;1.79;100.00
62952;BME280;52163;52.212;-1.002;2023-01-16T03:00:12;97520.87;;;1.81;100.00
62952;BME280;52163;52.212;-1.002;2023-01-16T03:02:41;97516.98;;;1.82;100.00
62952;BME280;52163;52.212;-1.002;2023-01-16T03:05:07;97513.62;;;1.83;100.00
62952;BME280;52163;52.212;-1.002;2023-01-16T03:19:19;97485.83;;;1.74;100.00
62952;BME280;52163;52.212;-1.002;2023-01-16T03:29:54;97473.21;;;1.83;100.00
62952;BME280;52163;52.212;-1.002;2023-01-16T03:32:37;97470.52;;;1.82;100.00
62952;BME280;52163;52.212;-1.002;2023-01-16T03:35:12;97467.73;;;1.80;100.00
62952;BME280;52163;52.212;-1.002;2023-01-16T03:37:48;97464.52;;;1.78;100.00
62952;BME280;52163;52.212;-1.002;2023-01-16T03:40:20;97464.84;;;1.79;100.00
62952;BME280;52163;52.212;-1.002;2023-01-16T03:42:52;97465.61;;;1.80;100.00
62952;BME280;52163;52.212;-1.002;2023-01-16T03:45:41;97458.98;;;1.83;100.00
62952;BME280;52163;52.212;-1.002;2023-01-16T03:48:14;97455.55;;;1.82;100.00
62952;BME280;52163;52.212;-1.002;2023-01-16T03:50:45;97453.67;;;1.79;100.00
62952;BME280;52163;52.212;-1.002;2023-01-16T03:53:14;97449.01;;;1.76;100.00
62952;BME280;52163;52.212;-1.002;2023-01-16T03:55:44;97448.95;;;1.74;100.00
62952;BME280;52163;52.212;-1.002;2023-01-16T03:58:33;97452.52;;;1.73;100.00
62952;BME280;52163;52.212;-1.002;2023-01-16T04:04:15;97442.46;;;1.78;100.00
62952;BME280;52163;52.212;-1.002;2023-01-16T04:10:06;97440.50;;;1.81;100.00
62952;BME280;52163;52.212;-1.002;2023-01-16T04:12:37;97435.61;;;1.81;100.00
62952;BME280;52163;52.212;-1.002;2023-01-16T04:15:07;97431.88;;;1.80;100.00
62952;BME280;52163;52.212;-1.002;2023-01-16T04:17:38;97432.50;;;1.78;100.00
62952;BME280;52163;52.212;-1.002;2023-01-16T04:20:05;97431.17;;;1.80;100.00
62952;BME280;52163;52.212;-1.002;2023-01-16T04:22:31;97430.44;;;1.80;100.00
62952;BME280;52163;52.212;-1.002;2023-01-16T04:24:59;97431.34;;;1.82;100.00
62952;BME280;52163;52.212;-1.002;2023-01-16T04:27:26;97433.73;;;1.85;100.00
62952;BME280;52163;52.212;-1.002;2023-01-16T04:29:51;97435.48;;;1.87;100.00
62952;BME280;52163;52.212;-1.002;2023-01-16T04:32:16;97433.63;;;1.91;100.00
62952;BME280;52163;52.212;-1.002;2023-01-16T04:34:42;97426.33;;;1.91;100.00
62952;BME280;52163;52.212;-1.002;2023-01-16T04:37:07;97424.67;;;1.90;100.00
62952;BME280;52163;52.212;-1.002;2023-01-16T04:39:33;97421.30;;;1.88;100.00
62952;BME280;52163;52.212;-1.002;2023-01-16T04:41:58;97421.54;;;1.85;100.00
62952;BME280;52163;52.212;-1.002;2023-01-16T04:44:24;97420.29;;;1.83;100.00
62952;BME280;52163;52.212;-1.002;2023-01-16T04:46:49;97416.57;;;1.82;100.00
62952;BME280;52163;52.212;-1.002;2023-01-16T04:49:15;97416.24;;;1.81;100.00
62952;BME280;52163;52.212;-1.002;2023-01-16T04:51:40;97412.38;;;1.82;100.00
62952;BME280;52163;52.212;-1.002;2023-01-16T04:54:07;97411.11;;;1.83;100.00
62952;BME280;52163;52.212;-1.002;2023-01-16T04:56:34;97410.97;;;1.82;100.00
62952;BME280;52163;52.212;-1.002;2023-01-16T04:59:01;97411.48;;;1.80;100.00
62952;BME280;52163;52.212;-1.002;2023-01-16T05:01:27;97409.46;;;1.77;100.00
62952;BME280;52163;52.212;-1.002;2023-01-16T05:03:52;97410.42;;;1.73;100.00
62952;BME280;52163;52.212;-1.002;2023-01-16T05:06:18;97406.08;;;1.70;100.00
62952;BME280;52163;52.212;-1.002;2023-01-16T05:08:43;97408.02;;;1.70;100.00
62952;BME280;52163;52.212;-1.002;2023-01-16T05:11:09;97404.18;;;1.70;100.00
62952;BME280;52163;52.212;-1.002;2023-01-16T05:13:34;97398.81;;;1.70;100.00
62952;BME280;52163;52.212;-1.002;2023-01-16T05:15:59;97397.85;;;1.69;100.00
62952;BME280;52163;52.212;-1.002;2023-01-16T05:18:25;97394.73;;;1.68;100.00
62952;BME280;52163;52.212;-1.002;2023-01-16T05:20:51;97394.22;;;1.68;100.00
62952;BME280;52163;52.212;-1.002;2023-01-16T05:23:17;97391.71;;;1.69;100.00
62952;BME280;52163;52.212;-1.002;2023-01-16T05:25:43;97396.52;;;1.72;100.00
62952;BME280;52163;52.212;-1.002;2023-01-16T05:28:08;97392.05;;;1.77;100.00
62952;BME280;52163;52.212;-1.002;2023-01-16T05:30:35;97394.31;;;1.81;100.00
62952;BME280;52163;52.212;-1.002;2023-01-16T05:33:00;97400.08;;;1.86;100.00
62952;BME280;52163;52.212;-1.002;2023-01-16T05:35:27;97396.27;;;1.88;100.00
62952;BME280;52163;52.212;-1.002;2023-01-16T05:37:53;97398.82;;;1.89;100.00
62952;BME280;52163;52.212;-1.002;2023-01-16T05:40:18;97400.34;;;1.89;100.00
62952;BME280;52163;52.212;-1.002;2023-01-16T05:42:44;97393.66;;;1.88;100.00
62952;BME280;52163;52.212;-1.002;2023-01-16T05:45:13;97392.42;;;1.88;100.00
62952;BME280;52163;52.212;-1.002;2023-01-16T05:47:38;97392.41;;;1.88;100.00
62952;BME280;52163;52.212;-1.002;2023-01-16T05:50:05;97397.15;;;1.90;100.00
62952;BME280;52163;52.212;-1.002;2023-01-16T05:52:30;97401.27;;;1.91;100.00
62952;BME280;52163;52.212;-1.002;2023-01-16T05:54:56;97405.54;;;1.90;100.00
62952;BME280;52163;52.212;-1.002;2023-01-16T05:57:21;97403.34;;;1.88;100.00
62952;BME280;52163;52.212;-1.002;2023-01-16T05:59:51;97403.77;;;1.87;100.00
62952;BME280;52163;52.212;-1.002;2023-01-16T06:02:17;97400.73;;;1.86;100.00
62952;BME280;52163;52.212;-1.002;2023-01-16T06:04:43;97398.95;;;1.85;100.00
62952;BME280;52163;52.212;-1.002;2023-01-16T06:07:09;97400.05;;;1.81;100.00
62952;BME280;52163;52.212;-1.002;2023-01-16T06:09:34;97395.73;;;1.79;100.00
62952;BME280;52163;52.212;-1.002;2023-01-16T06:11:59;97395.91;;;1.76;100.00
62952;BME280;52163;52.212;-1.002;2023-01-16T06:14:25;97398.23;;;1.73;100.00
62952;BME280;52163;52.212;-1.002;2023-01-16T06:16:50;97401.95;;;1.70;100.00
62952;BME280;52163;52.212;-1.002;2023-01-16T06:19:15;97400.15;;;1.68;100.00
62952;BME280;52163;52.212;-1.002;2023-01-16T06:21:41;97405.17;;;1.66;100.00
62952;BME280;52163;52.212;-1.002;2023-01-16T06:24:06;97410.23;;;1.66;100.00
62952;BME280;52163;52.212;-1.002;2023-01-16T06:26:32;97414.38;;;1.66;100.00
62952;BME280;52163;52.212;-1.002;2023-01-16T06:28:58;97410.50;;;1.64;100.00
62952;BME280;52163;52.212;-1.002;2023-01-16T06:31:23;97421.55;;;1.63;100.00
62952;BME280;52163;52.212;-1.002;2023-01-16T06:33:48;97420.55;;;1.63;100.00
62952;BME280;52163;52.212;-1.002;2023-01-16T06:36:14;97425.85;;;1.64;100.00
62952;BME280;52163;52.212;-1.002;2023-01-16T06:38:39;97424.27;;;1.66;100.00
62952;BME280;52163;52.212;-1.002;2023-01-16T06:41:05;97424.81;;;1.69;100.00
62952;BME280;52163;52.212;-1.002;2023-01-16T06:43:30;97428.45;;;1.71;100.00
62952;BME280;52163;52.212;-1.002;2023-01-16T06:45:56;97424.45;;;1.74;100.00
62952;BME280;52163;52.212;-1.002;2023-01-16T06:48:22;97422.64;;;1.77;100.00
62952;BME280;52163;52.212;-1.002;2023-01-16T06:50:48;97424.31;;;1.83;100.00
62952;BME280;52163;52.212;-1.002;2023-01-16T06:53:14;97426.52;;;1.88;100.00
62952;BME280;52163;52.212;-1.002;2023-01-16T06:55:40;97432.34;;;1.95;100.00
62952;BME280;52163;52.212;-1.002;2023-01-16T06:58:07;97433.42;;;2.01;100.00
62952;BME280;52163;52.212;-1.002;2023-01-16T07:00:33;97436.38;;;2.06;100.00
62952;BME280;52163;52.212;-1.002;2023-01-16T07:03:00;97434.80;;;2.11;100.00
62952;BME280;52163;52.212;-1.002;2023-01-16T07:05:27;97438.63;;;2.15;100.00
62952;BME280;52163;52.212;-1.002;2023-01-16T07:07:53;97440.77;;;2.22;100.00
62952;BME280;52163;52.212;-1.002;2023-01-16T07:10:19;97440.84;;;2.28;100.00
62952;BME280;52163;52.212;-1.002;2023-01-16T07:12:48;97441.82;;;2.34;100.00
62952;BME280;52163;52.212;-1.002;2023-01-16T07:15:14;97439.42;;;2.38;100.00
62952;BME280;52163;52.212;-1.002;2023-01-16T07:17:58;97443.61;;;2.42;100.00
62952;BME280;52163;52.212;-1.002;2023-01-16T07:20:52;97444.71;;;2.44;100.00
62952;BME280;52163;52.212;-1.002;2023-01-16T07:23:40;97442.55;;;2.47;100.00
62952;BME280;52163;52.212;-1.002;2023-01-16T07:26:07;97440.63;;;2.50;100.00
62952;BME280;52163;52.212;-1.002;2023-01-16T07:28:33;97443.87;;;2.53;100.00
62952;BME280;52163;52.212;-1.002;2023-01-16T07:31:01;97445.67;;;2.56;100.00
62952;BME280;52163;52.212;-1.002;2023-01-16T07:33:30;97448.98;;;2.59;100.00
62952;BME280;52163;52.212;-1.002;2023-01-16T07:35:56;97452.71;;;2.60;100.00
62952;BME280;52163;52.212;-1.002;2023-01-16T07:38:21;97451.52;;;2.60;100.00
62952;BME280;52163;52.212;-1.002;2023-01-16T07:40:47;97447.34;;;2.60;100.00
62952;BME280;52163;52.212;-1.002;2023-01-16T07:43:12;97451.64;;;2.60;100.00
62952;BME280;52163;52.212;-1.002;2023-01-16T07:45:37;97457.20;;;2.63;100.00
62952;BME280;52163;52.212;-1.002;2023-01-16T07:48:03;97454.95;;;2.65;100.00
62952;BME280;52163;52.212;-1.002;2023-01-16T07:50:29;97455.30;;;2.68;100.00
62952;BME280;52163;52.212;-1.002;2023-01-16T07:52:55;97456.94;;;2.69;100.00
62952;BME280;52163;52.212;-1.002;2023-01-16T07:55:20;97459.43;;;2.71;100.00
62952;BME280;52163;52.212;-1.002;2023-01-16T07:57:46;97461.29;;;2.71;100.00
62952;BME280;52163;52.212;-1.002;2023-01-16T08:00:13;97462.05;;;2.73;100.00
62952;BME280;52163;52.212;-1.002;2023-01-16T08:02:39;97468.18;;;2.75;100.00
62952;BME280;52163;52.212;-1.002;2023-01-16T08:05:06;97474.44;;;2.77;100.00
62952;BME280;52163;52.212;-1.002;2023-01-16T08:07:32;97478.09;;;2.80;100.00
62952;BME280;52163;52.212;-1.002;2023-01-16T08:09:57;97479.14;;;2.82;100.00
62952;BME280;52163;52.212;-1.002;2023-01-16T08:12:23;97481.02;;;2.82;100.00
62952;BME280;52163;52.212;-1.002;2023-01-16T08:14:48;97487.09;;;2.83;100.00
62952;BME280;52163;52.212;-1.002;2023-01-16T08:17:14;97488.58;;;2.84;100.00
62952;BME280;52163;52.212;-1.002;2023-01-16T08:19:40;97491.61;;;2.85;100.00
62952;BME280;52163;52.212;-1.002;2023-01-16T08:22:05;97491.85;;;2.87;100.00
62952;BME280;52163;52.212;-1.002;2023-01-16T08:24:31;97494.71;;;2.88;100.00
62952;BME280;52163;52.212;-1.002;2023-01-16T08:26:57;97496.88;;;2.89;100.00
62952;BME280;52163;52.212;-1.002;2023-01-16T08:29:23;97493.54;;;2.90;100.00
62952;BME280;52163;52.212;-1.002;2023-01-16T08:31:49;97489.76;;;2.89;100.00
62952;BME280;52163;52.212;-1.002;2023-01-16T08:34:15;97499.89;;;2.86;100.00
62952;BME280;52163;52.212;-1.002;2023-01-16T08:36:40;97507.89;;;2.84;100.00
62952;BME280;52163;52.212;-1.002;2023-01-16T08:39:06;97512.50;;;2.83;100.00
62952;BME280;52163;52.212;-1.002;2023-01-16T08:41:33;97510.27;;;2.83;100.00
62952;BME280;52163;52.212;-1.002;2023-01-16T08:44:17;97512.47;;;2.82;100.00
62952;BME280;52163;52.212;-1.002;2023-01-16T08:47:04;97510.00;;;2.80;100.00
62952;BME280;52163;52.212;-1.002;2023-01-16T08:49:50;97515.13;;;2.76;100.00
62952;BME280;52163;52.212;-1.002;2023-01-16T08:52:35;97520.86;;;2.74;100.00
62952;BME280;52163;52.212;-1.002;2023-01-16T08:55:02;97523.48;;;2.74;100.00
62952;BME280;52163;52.212;-1.002;2023-01-16T08:57:28;97526.63;;;2.76;100.00
62952;BME280;52163;52.212;-1.002;2023-01-16T08:59:55;97523.20;;;2.78;100.00
62952;BME280;52163;52.212;-1.002;2023-01-16T09:02:21;97532.92;;;2.79;100.00
62952;BME280;52163;52.212;-1.002;2023-01-16T09:04:47;97529.27;;;2.76;100.00
62952;BME280;52163;52.212;-1.002;2023-01-16T09:07:13;97532.25;;;2.76;100.00
62952;BME280;52163;52.212;-1.002;2023-01-16T09:09:39;97536.43;;;2.78;100.00
62952;BME280;52163;52.212;-1.002;2023-01-16T09:12:12;97540.71;;;2.82;100.00
62952;BME280;52163;52.212;-1.002;2023-01-16T09:14:56;97544.04;;;2.84;100.00
62952;BME280;52163;52.212;-1.002;2023-01-16T09:17:23;97546.34;;;2.85;100.00
62952;BME280;52163;52.212;-1.002;2023-01-16T09:19:50;97549.45;;;2.88;100.00
62952;BME280;52163;52.212;-1.002;2023-01-16T09:22:16;97549.44;;;2.91;100.00
62952;BME280;52163;52.212;-1.002;2023-01-16T09:24:42;97552.59;;;2.98;100.00
62952;BME280;52163;52.212;-1.002;2023-01-16T09:27:08;97554.81;;;3.05;100.00
62952;BME280;52163;52.212;-1.002;2023-01-16T09:29:34;97559.43;;;3.11;100.00
62952;BME280;52163;52.212;-1.002;2023-01-16T09:31:59;97559.63;;;3.13;99.96
62952;BME280;52163;52.212;-1.002;2023-01-16T09:34:26;97566.48;;;3.12;99.92
62952;BME280;52163;52.212;-1.002;2023-01-16T09:36:51;97569.20;;;3.11;99.82
62952;BME280;52163;52.212;-1.002;2023-01-16T09:39:17;97566.51;;;3.10;99.70
62952;BME280;52163;52.212;-1.002;2023-01-16T09:45:03;97572.48;;;3.13;99.85
62952;BME280;52163;52.212;-1.002;2023-01-16T09:47:32;97569.55;;;3.15;99.70
62952;BME280;52163;52.212;-1.002;2023-01-16T09:50:15;97577.14;;;3.19;99.29
62952;BME280;52163;52.212;-1.002;2023-01-16T09:52:46;97582.41;;;3.23;98.94
62952;BME280;52163;52.212;-1.002;2023-01-16T09:55:48;97587.39;;;3.29;98.82
62952;BME280;52163;52.212;-1.002;2023-01-16T09:58:38;97588.75;;;3.34;98.53
62952;BME280;52163;52.212;-1.002;2023-01-16T10:01:31;97588.96;;;3.38;97.91
62952;BME280;52163;52.212;-1.002;2023-01-16T10:04:19;97592.66;;;3.42;97.59
62952;BME280;52163;52.212;-1.002;2023-01-16T10:09:41;97600.95;;;3.48;96.97
62952;BME280;52163;52.212;-1.002;2023-01-16T10:12:12;97605.92;;;3.51;96.52
62952;BME280;52163;52.212;-1.002;2023-01-16T10:20:15;97603.89;;;3.62;96.08
62952;BME280;52163;52.212;-1.002;2023-01-16T10:23:08;97607.23;;;3.64;96.02
62952;BME280;52163;52.212;-1.002;2023-01-16T10:25:46;97606.96;;;3.67;95.54
62952;BME280;52163;52.212;-1.002;2023-01-16T10:31:23;97609.75;;;3.74;95.50
62952;BME280;52163;52.212;-1.002;2023-01-16T10:34:05;97609.47;;;3.71;95.41
62952;BME280;52163;52.212;-1.002;2023-01-16T10:36:39;97607.55;;;3.66;95.17
62952;BME280;52163;52.212;-1.002;2023-01-16T10:39:09;97611.02;;;3.62;94.80
62952;BME280;52163;52.212;-1.002;2023-01-16T10:41:41;97612.31;;;3.61;94.27
62952;BME280;52163;52.212;-1.002;2023-01-16T10:44:34;97617.61;;;3.60;94.17
62952;BME280;52163;52.212;-1.002;2023-01-16T10:47:32;97612.77;;;3.67;94.29
62952;BME280;52163;52.212;-1.002;2023-01-16T10:50:20;97613.11;;;3.73;94.33
62952;BME280;52163;52.212;-1.002;2023-01-16T10:52:47;97608.54;;;3.76;93.88
62952;BME280;52163;52.212;-1.002;2023-01-16T10:55:14;97603.73;;;3.79;94.09
62952;BME280;52163;52.212;-1.002;2023-01-16T10:57:46;97604.63;;;3.82;94.04
62952;BME280;52163;52.212;-1.002;2023-01-16T11:00:17;97606.02;;;3.88;94.09
62952;BME280;52163;52.212;-1.002;2023-01-16T11:02:46;97606.17;;;3.95;93.53
62952;BME280;52163;52.212;-1.002;2023-01-16T11:05:35;97608.14;;;4.01;93.68
62952;BME280;52163;52.212;-1.002;2023-01-16T11:10:30;97608.72;;;4.09;93.30
62952;BME280;52163;52.212;-1.002;2023-01-16T11:12:56;97608.05;;;4.09;93.28
62952;BME280;52163;52.212;-1.002;2023-01-16T11:15:59;97613.39;;;4.08;93.06
62952;BME280;52163;52.212;-1.002;2023-01-16T11:18:43;97615.95;;;4.06;92.85
62952;BME280;52163;52.212;-1.002;2023-01-16T11:21:30;97617.56;;;4.03;92.72
62952;BME280;52163;52.212;-1.002;2023-01-16T11:24:04;97610.64;;;4.00;92.73
62952;BME280;52163;52.212;-1.002;2023-01-16T11:26:36;97620.21;;;4.01;92.59
62952;BME280;52163;52.212;-1.002;2023-01-16T11:29:02;97614.65;;;4.01;92.44
62952;BME280;52163;52.212;-1.002;2023-01-16T11:31:28;97619.13;;;3.97;92.30
62952;BME280;52163;52.212;-1.002;2023-01-16T11:34:00;97617.54;;;3.97;92.47
62952;BME280;52163;52.212;-1.002;2023-01-16T11:36:31;97615.39;;;4.00;92.86
62952;BME280;52163;52.212;-1.002;2023-01-16T11:38:58;97614.92;;;4.04;92.80
62952;BME280;52163;52.212;-1.002;2023-01-16T11:41:31;97617.44;;;4.07;92.24
62952;BME280;52163;52.212;-1.002;2023-01-16T11:44:19;97612.77;;;4.09;91.91
62952;BME280;52163;52.212;-1.002;2023-01-16T11:47:05;97611.54;;;4.09;91.82
62952;BME280;52163;52.212;-1.002;2023-01-16T11:49:38;97610.38;;;4.06;91.79
62952;BME280;52163;52.212;-1.002;2023-01-16T11:52:04;97610.98;;;4.05;91.83
62952;BME280;52163;52.212;-1.002;2023-01-16T11:54:34;97619.53;;;4.07;91.83
62952;BME280;52163;52.212;-1.002;2023-01-16T12:05:09;97604.23;;;4.33;90.51
62952;BME280;52163;52.212;-1.002;2023-01-16T12:14:16;97609.23;;;4.69;89.57
62952;BME280;52163;52.212;-1.002;2023-01-16T12:19:57;97614.74;;;4.80;88.80
62952;BME280;52163;52.212;-1.002;2023-01-16T12:22:52;97619.86;;;4.74;88.32
62952;BME280;52163;52.212;-1.002;2023-01-16T12:26:29;97615.73;;;4.68;88.36
62952;BME280;52163;52.212;-1.002;2023-01-16T12:34:25;97620.52;;;4.52;87.68
62952;BME280;52163;52.212;-1.002;2023-01-16T12:39:36;97626.05;;;4.53;87.35
62952;BME280;52163;52.212;-1.002;2023-01-16T12:42:28;97623.42;;;4.55;87.24
62952;BME280;52163;52.212;-1.002;2023-01-16T12:53:54;97613.44;;;4.56;86.51
62952;BME280;52163;52.212;-1.002;2023-01-16T12:56:46;97612.61;;;4.55;86.39
62952;BME280;52163;52.212;-1.002;2023-01-16T12:59:22;97613.92;;;4.75;85.83
62952;BME280;52163;52.212;-1.002;2023-01-16T13:02:08;97611.73;;;4.91;85.21
62952;BME280;52163;52.212;-1.002;2023-01-16T13:04:51;97619.39;;;4.85;85.39
62952;BME280;52163;52.212;-1.002;2023-01-16T13:07:19;97620.08;;;4.71;85.93
62952;BME280;52163;52.212;-1.002;2023-01-16T13:09:54;97617.34;;;4.48;86.10
62952;BME280;52163;52.212;-1.002;2023-01-16T13:12:43;97616.67;;;4.24;86.60
62952;BME280;52163;52.212;-1.002;2023-01-16T13:15:33;97619.13;;;4.10;86.86
62952;BME280;52163;52.212;-1.002;2023-01-16T13:18:27;97625.12;;;4.03;86.84
62952;BME280;52163;52.212;-1.002;2023-01-16T13:20:59;97617.77;;;4.08;87.17
62952;BME280;52163;52.212;-1.002;2023-01-16T13:23:31;97619.02;;;4.17;86.99
62952;BME280;52163;52.212;-1.002;2023-01-16T13:26:03;97623.44;;;4.20;86.76
62952;BME280;52163;52.212;-1.002;2023-01-16T13:28:54;97627.53;;;4.17;86.58
62952;BME280;52163;52.212;-1.002;2023-01-16T13:31:56;97631.34;;;4.17;86.38
62952;BME280;52163;52.212;-1.002;2023-01-16T13:34:30;97629.02;;;4.25;86.50
62952;BME280;52163;52.212;-1.002;2023-01-16T13:42:40;97633.51;;;4.49;84.32
62952;BME280;52163;52.212;-1.002;2023-01-16T13:45:18;97635.74;;;4.41;83.58
62952;BME280;52163;52.212;-1.002;2023-01-16T13:48:05;97631.73;;;4.32;82.94
62952;BME280;52163;52.212;-1.002;2023-01-16T13:50:31;97629.34;;;4.29;82.79
62952;BME280;52163;52.212;-1.002;2023-01-16T13:53:02;97630.04;;;4.33;82.28
62952;BME280;52163;52.212;-1.002;2023-01-16T13:55:34;97626.77;;;4.31;82.08
62952;BME280;52163;52.212;-1.002;2023-01-16T13:58:21;97630.27;;;4.29;82.10
62952;BME280;52163;52.212;-1.002;2023-01-16T14:01:03;97635.43;;;4.32;81.83
62952;BME280;52163;52.212;-1.002;2023-01-16T14:03:34;97636.77;;;4.39;81.40
62952;BME280;52163;52.212;-1.002;2023-01-16T14:08:49;97675.56;;;4.44;80.80
62952;BME280;52163;52.212;-1.002;2023-01-16T14:11:40;97681.55;;;3.82;80.54
62952;BME280;52163;52.212;-1.002;2023-01-16T14:14:28;97671.72;;;3.21;82.03
62952;BME280;52163;52.212;-1.002;2023-01-16T14:17:13;97681.45;;;2.76;84.22
62952;BME280;52163;52.212;-1.002;2023-01-16T14:19:51;97688.08;;;2.54;85.75
62952;BME280;52163;52.212;-1.002;2023-01-16T14:22:20;97695.05;;;2.40;87.39
62952;BME280;52163;52.212;-1.002;2023-01-16T14:24:52;97696.08;;;2.27;88.16
62952;BME280;52163;52.212;-1.002;2023-01-16T14:27:23;97701.14;;;2.17;88.99
62952;BME280;52163;52.212;-1.002;2023-01-16T14:29:52;97703.42;;;2.10;89.65
62952;BME280;52163;52.212;-1.002;2023-01-16T14:32:26;97702.96;;;2.04;89.72
62952;BME280;52163;52.212;-1.002;2023-01-16T14:37:28;97705.86;;;2.05;90.51
62952;BME280;52163;52.212;-1.002;2023-01-16T14:40:18;97709.95;;;2.06;90.75
62952;BME280;52163;52.212;-1.002;2023-01-16T14:42:55;97714.73;;;2.10;91.15
62952;BME280;52163;52.212;-1.002;2023-01-16T14:45:42;97716.16;;;2.17;91.65
62952;BME280;52163;52.212;-1.002;2023-01-16T14:48:45;97719.06;;;2.23;92.47
62952;BME280;52163;52.212;-1.002;2023-01-16T14:51:32;97715.21;;;2.30;92.74
62952;BME280;52163;52.212;-1.002;2023-01-16T14:54:33;97716.56;;;2.41;92.21
62952;BME280;52163;52.212;-1.002;2023-01-16T14:57:21;97722.09;;;2.54;91.92
62952;BME280;52163;52.212;-1.002;2023-01-16T15:02:23;97725.84;;;2.57;90.77
62952;BME280;52163;52.212;-1.002;2023-01-16T15:05:20;97722.08;;;2.49;90.02
62952;BME280;52163;52.212;-1.002;2023-01-16T15:07:53;97721.59;;;2.41;89.44
62952;BME280;52163;52.212;-1.002;2023-01-16T15:10:36;97718.23;;;2.30;88.83
62952;BME280;52163;52.212;-1.002;2023-01-16T15:13:15;97724.60;;;2.16;88.70
62952;BME280;52163;52.212;-1.002;2023-01-16T15:15:47;97720.06;;;2.06;89.10